createdAt,value
2022-12-25T12:34:53.742Z,90.32
2022-12-25T12:39:57.793Z,90.13
2022-12-25T12:45:11.187Z,90.18
2022-12-25T12:50:43.349Z,90.25
2022-12-25T12:55:45.427Z,90.32
2022-12-25T13:00:58.617Z,90.61
2022-12-25T13:06:13.578Z,90.21
2022-12-25T13:11:19.771Z,90.28
2022-12-25T13:16:40.444Z,90.12
2022-12-25T13:21:54.704Z,89.86
2022-12-25T13:26:56.892Z,89.85
2022-12-25T13:32:01.280Z,89.84
2022-12-25T13:37:22.591Z,89.75
2022-12-25T13:42:28.665Z,89.94
2022-12-25T13:47:37.788Z,90.03
2022-12-25T13:52:40.268Z,89.75
2022-12-25T13:57:53.207Z,89.55
2022-12-25T14:02:56.022Z,89.49
2022-12-25T14:08:01.228Z,89.46
2022-12-25T14:13:08.005Z,89.40
2022-12-25T14:18:20.337Z,89.14
2022-12-25T14:23:22.827Z,88.85
2022-12-25T14:28:33.311Z,88.54
2022-12-25T14:33:38.819Z,88.70
2022-12-25T14:38:43.091Z,88.60
2022-12-25T14:43:55.876Z,88.09
2022-12-25T14:49:25.282Z,88.31
2022-12-25T14:54:27.859Z,88.29
2022-12-25T14:59:30.528Z,88.30
2022-12-25T15:04:32.519Z,88.25
2022-12-25T15:09:36.750Z,88.60
2022-12-25T15:14:40.781Z,88.61
2022-12-25T15:19:43.966Z,88.93
2022-12-25T15:24:46.465Z,88.14
2022-12-25T15:35:21.045Z,88.26
2022-12-25T15:40:23.426Z,88.42
2022-12-25T15:45:28.563Z,88.21
2022-12-25T15:50:32.928Z,88.60
2022-12-25T15:55:35.308Z,88.40
2022-12-25T16:00:37.811Z,88.33
2022-12-25T16:05:40.223Z,88.58
2022-12-25T16:10:42.356Z,88.33
2022-12-25T16:15:45.383Z,88.17
2022-12-25T16:20:48.181Z,88.59
2022-12-25T16:25:50.570Z,88.09
2022-12-25T16:30:52.778Z,88.08
2022-12-25T16:35:55.615Z,88.38
2022-12-25T16:41:00.358Z,88.38
2022-12-25T16:46:13.256Z,87.98
2022-12-25T16:51:21.096Z,88.15
2022-12-25T16:56:28.659Z,88.21
2022-12-25T17:01:30.966Z,87.80
2022-12-25T17:06:33.172Z,88.30
2022-12-25T17:11:35.313Z,88.05
2022-12-25T17:16:38.836Z,87.92
2022-12-25T17:21:41.184Z,88.12
2022-12-25T17:26:44.260Z,88.16
2022-12-25T17:31:46.524Z,87.97
2022-12-25T17:36:48.660Z,87.90
2022-12-25T17:41:51.263Z,87.84
2022-12-25T17:46:53.558Z,87.88
2022-12-25T17:51:55.806Z,88.02
2022-12-25T17:56:58.024Z,88.10
2022-12-25T18:02:00.718Z,88.33
2022-12-25T18:07:03.662Z,88.14
2022-12-25T18:12:06.663Z,87.97
2022-12-25T18:17:08.999Z,87.86
2022-12-25T18:22:11.132Z,87.82
2022-12-25T18:27:13.294Z,88.30
2022-12-25T18:32:15.708Z,87.86
2022-12-25T18:37:18.695Z,88.05
2022-12-25T18:42:39.413Z,87.75
2022-12-25T18:47:42.371Z,87.56
2022-12-25T18:52:48.731Z,87.69
2022-12-25T18:57:53.831Z,87.60
2022-12-25T19:02:58.604Z,87.72
